EST,Max TemperatureF,Mean TemperatureF,Min TemperatureF,Max Dew PointF,MeanDew PointF,Min DewpointF,Max Humidity, Mean Humidity, Min Humidity, Max Sea Level PressureIn, Mean Sea Level PressureIn, Min Sea Level PressureIn, Max VisibilityMiles, Mean VisibilityMiles, Min VisibilityMiles, Max Wind SpeedMPH, Mean Wind SpeedMPH, Max Gust SpeedMPH,PrecipitationIn, CloudCover, Events, WindDirDegrees
2014-1-1,46,34,23,28,22,19,87,65,37,30.32,30.20,30.03,10,10,10,8,2,,0.00,0,,189
2014-1-2,39,27,15,36,27,14,100,86,65,30.02,29.80,29.62,10,6,0,9,1,,10.41,5,Rain-Snow,263
2014-1-3,15,10,5,14,7,1,93,84,67,30.39,30.26,29.91,10,6,0,0,0,,4.88,5,Rain-Snow,-1
2014-1-4,42,22,3,19,7,0,92,58,19,30.29,30.19,30.10,10,10,10,14,1,22,0.00,0,,201
2014-1-5,55,40,26,45,32,14,81,65,54,30.14,29.87,29.44,10,10,10,18,3,26,0.00,2,,170
2014-1-6,55,26,-4,46,9,-15,100,76,55,30.13,29.89,29.44,10,4,0,31,7,39,2.82,5,Snow,237
2014-1-7,8,0,-7,0,-9,-15,78,66,56,30.36,30.29,30.14,10,8,2,0,0,,0.00,1,Snow,-1
2014-1-8,32,20,8,21,7,-2,69,55,44,30.46,30.40,30.36,10,10,10,13,3,22,0.00,2,,208
2014-1-9,42,32,23,27,20,14,86,62,39,30.51,30.43,30.33,10,10,10,12,1,23,0.00,3,,227
2014-1-10,55,46,37,48,41,23,100,84,52,30.33,30.18,29.91,10,8,0,7,2,,0.03,4,Fog-Rain,162
2014-1-11,59,49,39,52,42,32,100,77,66,29.89,29.65,29.47,10,10,3,22,11,41,0.11,5,,227
2014-1-12,41,37,33,32,30,28,87,79,65,30.07,29.96,29.74,10,10,10,16,11,28,0.00,5,,241
2014-1-13,60,46,33,43,28,19,93,52,25,30.03,29.93,29.83,10,10,4,16,5,31,0.03,2,Rain,194
2014-1-14,44,38,33,43,36,30,100,85,61,29.87,29.83,29.77,10,9,3,14,6,21,0.10,3,Rain,227
2014-1-15,42,37,32,34,29,25,100,80,57,30.00,29.92,29.83,10,8,1,14,7,24,0.20,5,Rain-Snow,229
2014-1-16,35,30,26,19,16,14,64,54,48,29.97,29.85,29.81,10,10,10,21,8,29,0.00,3,,197
2014-1-17,42,32,21,32,27,16,100,83,42,29.94,29.84,29.74,10,7,0,20,9,33,3.38,5,Rain-Snow,215
2014-1-18,21,16,12,21,12,9,100,80,68,30.00,29.93,29.81,10,7,1,14,8,21,0.81,6,Snow,246
2014-1-19,33,28,23,30,25,21,100,80,60,29.87,29.80,29.75,10,8,1,20,10,25,0.29,5,Rain-Snow,221
2014-1-20,41,36,33,27,22,19,61,56,52,29.79,29.75,29.72,10,10,10,20,14,28,0.00,0,,223
2014-1-21,,,,,,,,,,,,,,,,,,,,,,
2014-1-22,,,,,,,,,,,,,,,,,,,,,,
2014-1-23,,,,,,,,,,,,,,,,,,,,,,
2014-1-24,,,,,,,,,,,,,,,,,,,,,,
2014-1-25,,,,,,,,,,,,,,,,,,,,,,
2014-1-26,,,,,,,,,,,,,,,,,,,,,,
2014-1-27,,,,,,,,,,,,,,,,,,,,,,
2014-1-28,,,,,,,,,,,,,,,,,,,,,,
2014-1-29,,,,,,,,,,,,,,,,,,,,,,
2014-1-30,,,,,,,,,,,,,,,,,,,,,,
2014-1-31,,,,,,,,,,,,,,,,,,,,,,